Time;durP1;ratioP1;P1;durP2;ratioP2;P2;SDS_P1;SDS_P2;PMS_P1;PMS_P2;Temp;Humidity;BMP_temperature;BMP_pressure;BME280_temperature;BME280_humidity;BME280_pressure;Samples;Min_cycle;Max_cycle;Signal;HPM_P1;HPM_P2
2022/12/18 00:02:10;;;;;;;115.37;47.13;;;;;;;-8.57;84.71;102528.38;5113693;28;20426;-64
2022/12/18 00:04:37;;;;;;;135.30;48.10;;;;;;;-8.53;85.06;102527.69;5113986;28;20432;-64
2022/12/18 00:07:03;;;;;;;117.30;45.57;;;;;;;-8.54;84.68;102538.91;5113813;28;20453;-64
2022/12/18 00:09:30;;;;;;;115.07;43.77;;;;;;;-8.58;85.17;102540.50;5114242;28;20409;-64
2022/12/18 00:12:07;;;;;;;113.27;44.00;;;;;;;-8.58;84.82;102542.22;5114224;28;20496;-64
2022/12/18 00:14:44;;;;;;;105.17;45.80;;;;;;;-8.61;85.02;102543.00;5113510;28;20453;-64
2022/12/18 00:17:10;;;;;;;121.43;45.00;;;;;;;-8.58;84.61;102545.69;5113566;28;20421;-64
2022/12/18 00:19:37;;;;;;;111.27;44.30;;;;;;;-8.58;84.62;102539.63;5114127;28;20447;-64
2022/12/18 00:22:03;;;;;;;126.50;47.37;;;;;;;-8.63;84.29;102539.44;5117024;28;20456;-64
2022/12/18 00:24:30;;;;;;;122.30;44.80;;;;;;;-8.69;84.66;102527.97;5117659;28;20425;-64
2022/12/18 00:26:56;;;;;;;116.10;44.17;;;;;;;-8.66;84.17;102523.78;5117603;28;20975;-64
2022/12/18 00:29:22;;;;;;;109.70;42.43;;;;;;;-8.86;84.04;102527.34;5118247;28;20429;-64
2022/12/18 00:31:49;;;;;;;110.13;45.73;;;;;;;-8.97;84.49;102520.88;5099292;28;20955;-64
2022/12/18 00:34:16;;;;;;;108.20;39.37;;;;;;;-8.97;84.76;102516.56;5117833;28;20433;-64
2022/12/18 00:36:42;;;;;;;106.83;42.17;;;;;;;-8.94;84.48;102528.78;5117971;28;20445;-64
2022/12/18 00:39:10;;;;;;;110.50;43.43;;;;;;;-8.90;84.58;102523.75;5117567;28;20815;-64
2022/12/18 00:44:21;;;;;;;107.00;43.27;;;;;;;-8.91;84.49;102523.69;5117923;28;20445;-64
2022/12/18 00:46:48;;;;;;;121.93;46.10;;;;;;;-9.09;84.79;102526.50;5117456;28;20445;-64
2022/12/18 00:49:17;;;;;;;100.47;41.00;;;;;;;-9.13;85.00;102535.84;5099078;28;20429;-64
2022/12/18 00:51:45;;;;;;;113.57;42.33;;;;;;;-9.09;85.48;102529.09;5117500;28;20416;-64
2022/12/18 00:54:11;;;;;;;120.60;41.43;;;;;;;-9.00;85.26;102538.09;5117442;28;20474;-64
2022/12/18 00:56:38;;;;;;;115.17;42.27;;;;;;;-8.92;85.69;102534.91;5117313;28;20441;-64
2022/12/18 00:59:14;;;;;;;100.63;40.97;;;;;;;-8.88;85.00;102534.19;5117603;28;20406;-64
2022/12/18 01:01:40;;;;;;;107.77;41.70;;;;;;;-8.92;84.79;102515.03;5098727;28;20530;-64
2022/12/18 01:04:07;;;;;;;106.07;39.97;;;;;;;-8.93;84.64;102520.16;5117524;28;20521;-64
2022/12/18 01:06:34;;;;;;;126.90;44.93;;;;;;;-8.89;84.29;102520.31;5116872;28;20441;-64
2022/12/18 01:09:00;;;;;;;94.30;41.43;;;;;;;-9.08;84.70;102530.84;5116787;28;20485;-64
2022/12/18 01:11:27;;;;;;;98.37;40.63;;;;;;;-9.03;84.98;102537.09;5098546;28;20457;-64
2022/12/18 01:13:53;;;;;;;99.47;41.43;;;;;;;-9.14;85.34;102533.22;5117041;28;20429;-64
2022/12/18 01:16:22;;;;;;;99.80;39.27;;;;;;;-9.11;86.08;102531.63;5116919;28;20850;-64
2022/12/18 01:18:52;;;;;;;105.00;40.30;;;;;;;-9.04;86.06;102538.81;5116987;28;20426;-64
2022/12/18 01:21:18;;;;;;;120.37;45.37;;;;;;;-8.97;85.69;102539.94;5116522;28;20448;-64
2022/12/18 01:23:45;;;;;;;99.13;42.57;;;;;;;-8.97;85.35;102532.16;5098333;28;20429;-64
2022/12/18 01:26:14;;;;;;;102.50;41.83;;;;;;;-9.05;85.18;102531.88;5116524;28;20445;-64
2022/12/18 01:28:42;;;;;;;120.27;41.53;;;;;;;-9.05;85.34;102530.97;5115234;28;20536;-64
2022/12/18 01:31:22;;;;;;;108.43;40.07;;;;;;;-9.11;85.22;102533.34;5116269;28;20464;-64
2022/12/18 01:33:50;;;;;;;109.33;41.07;;;;;;;-9.10;85.21;102528.19;5098217;28;20422;-64
2022/12/18 01:36:18;;;;;;;89.47;39.77;;;;;;;-9.07;84.83;102527.44;5116573;28;20827;-64
2022/12/18 01:38:45;;;;;;;99.07;39.13;;;;;;;-9.07;85.31;102527.44;5098055;28;21029;-64
2022/12/18 01:41:12;;;;;;;85.70;39.80;;;;;;;-9.08;84.95;102515.28;5116222;28;20432;-64
2022/12/18 01:43:53;;;;;;;111.57;41.73;;;;;;;-9.06;84.96;102514.50;5116741;28;20425;-64
2022/12/18 01:46:25;;;;;;;101.83;39.73;;;;;;;-9.06;85.41;102514.50;5116223;28;20468;-64
2022/12/18 01:49:00;;;;;;;97.87;38.83;;;;;;;-9.05;85.25;102517.97;5097824;28;20570;-64
2022/12/18 01:51:29;;;;;;;98.70;39.70;;;;;;;-8.97;84.89;102523.47;5116374;28;20421;-64
2022/12/18 01:53:58;;;;;;;93.67;38.33;;;;;;;-9.06;84.73;102524.00;5097752;28;20478;-64
2022/12/18 01:56:25;;;;;;;97.43;38.80;;;;;;;-9.18;84.95;102514.06;5115886;28;20453;-64
2022/12/18 01:58:59;;;;;;;109.17;40.37;;;;;;;-9.10;84.91;102510.03;5097590;28;20943;-64
2022/12/18 02:01:26;;;;;;;105.10;39.13;;;;;;;-9.14;84.63;102508.16;5115910;28;20880;-64
2022/12/18 02:03:53;;;;;;;94.57;40.30;;;;;;;-9.22;84.61;102505.28;5115857;28;20516;-64
2022/12/18 02:06:34;;;;;;;107.33;41.07;;;;;;;-9.24;84.26;102506.03;5097588;28;20857;-64
2022/12/18 02:09:18;;;;;;;98.93;40.37;;;;;;;-9.35;84.41;102497.84;5114468;28;20986;-64
2022/12/18 02:11:45;;;;;;;90.00;40.10;;;;;;;-9.26;84.62;102507.72;5116020;28;20414;-64
2022/12/18 02:14:32;;;;;;;100.93;39.80;;;;;;;-9.34;84.56;102511.69;5097532;28;20863;-64
2022/12/18 02:17:06;;;;;;;99.27;38.40;;;;;;;-9.35;84.66;102505.63;5097346;28;20466;-64
2022/12/18 02:20:02;;;;;;;84.07;35.43;;;;;;;-9.34;84.54;102509.09;5115816;28;20406;-64
2022/12/18 02:23:04;;;;;;;90.77;36.17;;;;;;;-9.29;84.55;102508.47;5097191;28;20935;-64
2022/12/18 02:25:57;;;;;;;82.17;33.97;;;;;;;-9.27;84.69;102509.38;5097139;28;20549;-64
2022/12/18 02:28:29;;;;;;;82.37;36.07;;;;;;;-9.25;84.97;102496.50;5097018;28;20445;-64
2022/12/18 02:31:02;;;;;;;79.43;35.90;;;;;;;-9.18;84.82;102501.09;5097933;28;20433;-64
2022/12/18 02:33:30;;;;;;;88.80;36.13;;;;;;;-9.13;83.97;102496.06;5096994;28;20857;-64
2022/12/18 02:35:59;;;;;;;90.43;36.50;;;;;;;-9.13;84.22;102496.06;5115424;28;20445;-64
2022/12/18 02:38:28;;;;;;;88.27;39.27;;;;;;;-9.16;84.48;102499.44;5097423;28;20490;-64
2022/12/18 02:40:59;;;;;;;90.20;37.40;;;;;;;-9.20;84.20;102498.41;5114757;28;20418;-64
2022/12/18 02:43:26;;;;;;;90.40;34.70;;;;;;;-9.20;84.21;102506.19;5113165;28;20444;-64
2022/12/18 02:45:58;;;;;;;83.63;38.50;;;;;;;-9.17;84.13;102504.56;5113715;28;20877;-64
2022/12/18 02:48:33;;;;;;;79.70;35.47;;;;;;;-9.19;84.24;102496.72;5097340;28;20796;-64
2022/12/18 02:51:28;;;;;;;90.73;36.77;;;;;;;-9.25;84.08;102505.16;5115500;28;20905;-64
2022/12/18 02:54:37;;;;;;;87.93;34.73;;;;;;;-9.26;84.14;102499.91;5097517;28;20436;-64
2022/12/18 02:57:36;;;;;;;89.40;36.50;;;;;;;-9.25;84.08;102510.34;5053146;28;20441;-64
2022/12/18 03:00:03;;;;;;;82.57;35.77;;;;;;;-9.28;83.94;102511.94;5076200;28;20479;-64
2022/12/18 03:02:38;;;;;;;110.47;38.67;;;;;;;-9.31;84.10;102509.22;5096412;28;20441;-64
2022/12/18 03:05:17;;;;;;;84.40;35.20;;;;;;;-9.34;83.78;102511.69;5096381;28;20453;-64
2022/12/18 03:07:53;;;;;;;83.27;37.07;;;;;;;-9.31;83.89;102504.94;5096346;28;20452;-64
2022/12/18 03:10:26;;;;;;;83.77;34.07;;;;;;;-9.32;84.18;102510.03;5097231;28;20429;-64
2022/12/18 03:13:13;;;;;;;80.33;36.00;;;;;;;-9.44;84.04;102497.50;5113302;28;20422;-64
2022/12/18 03:15:47;;;;;;;84.93;37.07;;;;;;;-9.50;83.88;102505.03;5096118;28;20485;-64
2022/12/18 03:18:34;;;;;;;75.80;32.80;;;;;;;-9.54;84.68;102503.16;5096166;28;20425;-64
2022/12/18 03:21:05;;;;;;;85.17;33.73;;;;;;;-9.47;83.84;102498.25;5096247;28;20446;-64
2022/12/18 03:23:39;;;;;;;85.30;32.30;;;;;;;-9.44;83.95;102497.50;5096866;28;20457;-64
2022/12/18 03:26:11;;;;;;;75.63;34.27;;;;;;;-9.49;83.80;102488.66;5096001;28;20467;-64
2022/12/18 03:28:48;;;;;;;77.90;33.17;;;;;;;-9.50;84.29;102486.91;5096480;28;20838;-64
2022/12/18 03:31:17;;;;;;;81.33;32.70;;;;;;;-9.50;84.36;102479.13;5096518;28;20429;-64
2022/12/18 03:33:50;;;;;;;72.47;31.67;;;;;;;-9.52;84.31;102478.19;5095869;28;20434;-63
2022/12/18 03:36:17;;;;;;;72.60;31.40;;;;;;;-9.71;84.67;102489.53;5095979;28;20491;-64
2022/12/18 03:38:44;;;;;;;70.07;31.50;;;;;;;-9.77;84.98;102484.09;5095839;28;20430;-64
2022/12/18 03:41:28;;;;;;;88.53;32.57;;;;;;;-9.75;84.86;102493.69;5095785;28;20469;-64
2022/12/18 03:44:23;;;;;;;75.10;31.70;;;;;;;-9.66;85.11;102496.66;5095933;28;20527;-64
2022/12/18 03:47:03;;;;;;;63.03;31.37;;;;;;;-9.55;84.58;102489.31;5095688;28;20780;-64
2022/12/18 03:49:38;;;;;;;63.87;30.00;;;;;;;-9.55;84.57;102486.72;5095614;28;20675;-64
2022/12/18 03:52:12;;;;;;;73.17;30.97;;;;;;;-9.52;84.85;102488.53;5096251;28;20436;-64
2022/12/18 03:54:43;;;;;;;69.97;31.47;;;;;;;-9.47;85.05;102495.66;5095274;28;20482;-64
2022/12/18 03:57:19;;;;;;;78.13;33.70;;;;;;;-9.46;85.27;102486.16;5095415;28;20524;-64
2022/12/18 03:59:52;;;;;;;65.57;30.93;;;;;;;-9.42;84.90;102481.16;5112595;28;20423;-64
2022/12/18 04:02:23;;;;;;;72.03;32.80;;;;;;;-9.41;85.20;102487.22;5112811;28;20441;-64
2022/12/18 04:04:53;;;;;;;66.40;30.13;;;;;;;-9.39;85.04;102482.09;5095409;28;20457;-64
2022/12/18 04:07:21;;;;;;;75.67;31.90;;;;;;;-9.43;84.74;102489.78;5095758;28;20437;-64
2022/12/18 04:09:50;;;;;;;78.57;31.37;;;;;;;-9.43;84.85;102487.19;5113235;28;20469;-64
2022/12/18 04:12:17;;;;;;;69.77;31.30;;;;;;;-9.39;84.70;102482.09;5095462;28;20442;-64
2022/12/18 04:14:45;;;;;;;68.37;31.20;;;;;;;-9.46;84.82;102479.25;5095323;28;20522;-64
2022/12/18 04:17:12;;;;;;;80.53;33.97;;;;;;;-9.44;84.91;102479.34;5095335;28;20477;-64
2022/12/18 04:19:38;;;;;;;78.37;31.90;;;;;;;-9.45;84.77;102485.38;5095399;28;20434;-64
2022/12/18 04:22:10;;;;;;;84.23;32.50;;;;;;;-9.46;85.03;102474.09;5095256;28;20480;-64
2022/12/18 04:24:41;;;;;;;75.80;31.53;;;;;;;-9.43;84.45;102465.56;5095536;28;20539;-64
2022/12/18 04:27:14;;;;;;;66.93;32.80;;;;;;;-9.43;84.49;102465.56;5095527;28;20438;-64
2022/12/18 04:29:46;;;;;;;68.97;33.40;;;;;;;-9.55;84.68;102478.03;5113448;28;20441;-63
2022/12/18 04:32:13;;;;;;;70.73;32.83;;;;;;;-9.57;84.50;102479.72;5095813;28;20863;-63
2022/12/18 04:34:42;;;;;;;80.27;34.43;;;;;;;-9.58;84.91;102481.38;5095052;28;20490;-64
2022/12/18 04:37:08;;;;;;;81.83;32.77;;;;;;;-9.60;84.85;102475.25;5095547;28;20437;-63
2022/12/18 04:39:35;;;;;;;76.60;34.13;;;;;;;-9.58;84.56;102473.59;5095096;28;20533;-63
2022/12/18 04:42:07;;;;;;;79.10;33.37;;;;;;;-9.56;85.02;102477.16;5112170;28;20807;-63
2022/12/18 04:44:34;;;;;;;76.60;31.17;;;;;;;-9.61;84.53;102475.22;5095089;28;20421;-64
2022/12/18 04:47:00;;;;;;;75.63;34.10;;;;;;;-9.70;84.21;102473.13;5095334;28;20443;-64
2022/12/18 04:49:26;;;;;;;73.83;33.07;;;;;;;-9.76;84.16;102480.69;5113209;28;20969;-64
2022/12/18 04:51:53;;;;;;;98.40;34.40;;;;;;;-9.81;85.04;102472.72;5113252;28;20465;-64
2022/12/18 04:54:20;;;;;;;85.80;32.33;;;;;;;-9.85;85.34;102470.81;5113246;28;20923;-64
2022/12/18 04:56:46;;;;;;;68.87;33.63;;;;;;;-9.87;85.34;102465.56;5114268;28;20452;-64
2022/12/18 04:59:13;;;;;;;84.23;33.27;;;;;;;-9.83;84.98;102466.59;5113594;28;20426;-64
2022/12/18 05:01:39;;;;;;;80.43;34.37;;;;;;;-9.78;85.01;102469.38;5113432;28;20779;-64
2022/12/18 05:04:06;;;;;;;76.10;33.47;;;;;;;-9.82;84.42;102460.56;5113149;28;20512;-64
2022/12/18 05:06:33;;;;;;;85.93;34.63;;;;;;;-9.76;84.92;102455.66;5113970;28;20452;-64
2022/12/18 05:08:59;;;;;;;75.77;33.87;;;;;;;-9.82;84.54;102447.63;5117146;28;20459;-64
2022/12/18 05:11:25;;;;;;;70.00;33.43;;;;;;;-9.78;84.63;102446.03;5117183;28;20426;-64
2022/12/18 05:13:52;;;;;;;65.43;31.53;;;;;;;-9.79;84.44;102441.66;5116802;28;20433;-63
2022/12/18 05:16:18;;;;;;;78.13;31.73;;;;;;;-9.84;84.57;102444.06;5116682;28;20445;-63
2022/12/18 05:18:45;;;;;;;65.03;31.77;;;;;;;-9.79;83.99;102439.06;5116966;28;20463;-63
2022/12/18 05:21:11;;;;;;;64.07;30.17;;;;;;;-9.73;84.45;102449.69;5116860;28;20450;-63
2022/12/18 05:23:37;;;;;;;80.13;31.10;;;;;;;-9.70;84.83;102442.03;5116644;28;20784;-63
2022/12/18 05:26:06;;;;;;;79.77;33.20;;;;;;;-9.67;83.92;102442.19;5116743;28;20449;-64
2022/12/18 05:28:34;;;;;;;75.43;32.83;;;;;;;-9.70;84.02;102431.66;5116467;28;20814;-63
2022/12/18 05:31:02;;;;;;;86.97;32.60;;;;;;;-9.67;84.54;102437.88;5116471;28;20439;-63
2022/12/18 05:33:32;;;;;;;75.33;33.13;;;;;;;-9.65;84.09;102441.41;5116720;28;20434;-63
2022/12/18 05:36:00;;;;;;;75.53;31.97;;;;;;;-9.64;84.35;102437.97;5116267;28;20445;-64
2022/12/18 05:38:28;;;;;;;67.00;29.50;;;;;;;-9.63;83.83;102447.50;5116338;28;20429;-64
2022/12/18 05:40:56;;;;;;;73.90;34.10;;;;;;;-9.64;83.99;102443.16;5116568;28;20420;-64
2022/12/18 05:43:23;;;;;;;87.97;32.87;;;;;;;-9.63;84.23;102451.81;5116568;28;20416;-64
2022/12/18 05:45:50;;;;;;;71.73;32.77;;;;;;;-9.66;83.57;102452.59;5116358;28;20456;-64
2022/12/18 05:48:17;;;;;;;83.57;34.43;;;;;;;-9.65;83.95;102453.47;5116099;28;20453;-64
2022/12/18 05:50:45;;;;;;;76.33;31.77;;;;;;;-9.69;83.94;102464.56;5116393;28;20433;-63
2022/12/18 05:53:14;;;;;;;74.57;33.30;;;;;;;-9.68;83.93;102466.31;5116377;28;20433;-63
2022/12/18 05:55:41;;;;;;;67.67;30.70;;;;;;;-9.68;84.24;102468.91;5116091;28;20463;-64
2022/12/18 05:58:09;;;;;;;76.20;32.87;;;;;;;-9.68;84.22;102468.91;5116211;28;20434;-64
2022/12/18 06:00:40;;;;;;;81.07;31.20;;;;;;;-9.72;83.49;102459.22;5115901;28;20445;-64
2022/12/18 06:03:08;;;;;;;67.53;32.07;;;;;;;-9.67;83.30;102460.31;5116447;28;20414;-64
2022/12/18 06:05:37;;;;;;;65.07;28.50;;;;;;;-9.77;83.62;102468.53;5115759;28;20445;-64
2022/12/18 06:08:04;;;;;;;57.77;27.53;;;;;;;-9.75;83.15;102470.38;5115941;28;20406;-64
2022/12/18 06:10:31;;;;;;;68.57;32.50;;;;;;;-9.74;83.45;102484.22;5116020;28;20410;-64
2022/12/18 06:12:57;;;;;;;77.30;31.90;;;;;;;-9.78;83.47;102492.69;5115947;28;20745;-64
2022/12/18 06:15:24;;;;;;;59.47;31.63;;;;;;;-9.79;83.62;102494.41;5115856;28;20799;-64
2022/12/18 06:17:50;;;;;;;58.80;29.20;;;;;;;-9.70;83.73;102502.53;5114763;28;20437;-64
2022/12/18 06:20:17;;;;;;;74.97;32.07;;;;;;;-9.75;83.04;102508.38;5115144;28;20425;-64
2022/12/18 06:22:43;;;;;;;67.80;32.27;;;;;;;-9.76;83.81;102514.38;5115781;28;20410;-64
2022/12/18 06:25:09;;;;;;;58.20;30.67;;;;;;;-9.74;83.86;102507.56;5115641;28;20445;-64
2022/12/18 06:27:36;;;;;;;55.77;29.30;;;;;;;-9.78;83.25;102501.34;5115665;28;20406;-64
2022/12/18 06:30:03;;;;;;;62.73;31.37;;;;;;;-9.86;83.25;102508.81;5115847;28;20457;-64
2022/12/18 06:32:30;;;;;;;78.57;30.43;;;;;;;-9.89;83.49;102510.38;5115299;28;20437;-64
2022/12/18 06:34:56;;;;;;;60.67;30.47;;;;;;;-9.88;83.48;102504.41;5115425;28;20442;-64
2022/12/18 06:37:26;;;;;;;61.33;28.73;;;;;;;-9.89;83.24;102503.53;5115474;28;20413;-64
2022/12/18 06:39:53;;;;;;;69.33;30.23;;;;;;;-9.93;83.03;102501.63;5115135;28;20942;-64
2022/12/18 06:42:19;;;;;;;77.53;29.10;;;;;;;-10.01;83.53;102499.53;5115082;28;20433;-64
2022/12/18 06:44:45;;;;;;;70.50;29.00;;;;;;;-9.96;83.60;102498.00;5114977;28;20464;-64
2022/12/18 06:47:12;;;;;;;66.10;29.17;;;;;;;-9.95;82.95;102492.91;5115008;28;20437;-63
2022/12/18 06:49:38;;;;;;;65.60;29.00;;;;;;;-9.95;83.39;102484.25;5114899;28;20461;-63
2022/12/18 06:52:04;;;;;;;72.67;32.00;;;;;;;-9.99;83.17;102477.16;5114858;28;20429;-63
2022/12/18 06:54:31;;;;;;;70.37;31.27;;;;;;;-10.02;83.27;102477.94;5114672;28;20437;-64
2022/12/18 06:56:57;;;;;;;74.10;30.47;;;;;;;-9.97;83.77;102467.75;5114776;28;20438;-63
2022/12/18 06:59:24;;;;;;;72.07;31.20;;;;;;;-10.06;83.85;102469.13;5115001;28;20421;-63
2022/12/18 07:01:51;;;;;;;54.97;29.20;;;;;;;-10.13;83.67;102468.81;5115042;28;20458;-64
2022/12/18 07:04:17;;;;;;;67.50;29.77;;;;;;;-10.18;83.31;102458.28;5115244;28;20470;-64
2022/12/18 07:06:44;;;;;;;62.40;29.70;;;;;;;-10.13;83.61;102467.09;5114550;28;20441;-63
2022/12/18 07:09:10;;;;;;;78.50;31.07;;;;;;;-10.04;83.08;102460.56;5114645;28;20468;-63
2022/12/18 07:11:36;;;;;;;68.00;28.83;;;;;;;-9.98;83.30;102451.31;5114835;28;20422;-63
2022/12/18 07:14:03;;;;;;;75.70;30.10;;;;;;;-10.00;83.67;102455.56;5114592;28;20430;-63
2022/12/18 07:16:29;;;;;;;76.50;28.27;;;;;;;-10.09;83.51;102456.06;5096410;28;20500;-63
2022/12/18 07:18:56;;;;;;;62.00;28.87;;;;;;;-10.13;83.29;102450.69;5115185;28;20483;-63
2022/12/18 07:21:23;;;;;;;57.50;27.10;;;;;;;-10.11;83.70;102454.22;5114317;28;20445;-63
2022/12/18 07:23:50;;;;;;;63.77;30.03;;;;;;;-10.18;84.13;102449.63;5114365;28;20422;-63
2022/12/18 07:26:20;;;;;;;59.13;28.43;;;;;;;-10.10;84.12;102448.25;5114274;28;20445;-64
2022/12/18 07:28:47;;;;;;;58.23;26.70;;;;;;;-10.19;83.77;102445.28;5114479;28;20443;-64
2022/12/18 07:31:19;;;;;;;57.77;26.13;;;;;;;-10.22;84.00;102445.13;5113961;28;20430;-64
2022/12/18 07:33:47;;;;;;;62.63;25.90;;;;;;;-10.12;84.05;102436.94;5114818;28;20406;-64
2022/12/18 07:36:14;;;;;;;57.73;27.07;;;;;;;-10.10;84.15;102433.59;5114169;28;20445;-64
2022/12/18 07:38:40;;;;;;;48.40;25.97;;;;;;;-10.07;83.92;102441.47;5114022;28;20441;-64
2022/12/18 07:41:12;;;;;;;47.37;26.10;;;;;;;-9.98;84.65;102434.88;5114300;28;20430;-64
2022/12/18 07:43:40;;;;;;;54.90;25.70;;;;;;;-9.97;84.59;102441.84;5114306;28;20410;-64
2022/12/18 07:46:09;;;;;;;53.77;26.87;;;;;;;-9.92;83.99;102442.91;5114147;28;20445;-64
2022/12/18 07:48:35;;;;;;;59.37;25.13;;;;;;;-9.88;84.29;102437.03;5114207;28;20511;-63
2022/12/18 07:51:04;;;;;;;60.87;26.87;;;;;;;-9.82;84.54;102438.97;5114200;28;20445;-63
2022/12/18 07:53:31;;;;;;;58.57;28.80;;;;;;;-9.83;84.10;102439.81;5114564;28;20428;-63
2022/12/18 07:56:00;;;;;;;67.13;28.00;;;;;;;-9.69;84.46;102449.88;5113826;28;20537;-64
2022/12/18 07:58:46;;;;;;;63.10;26.90;;;;;;;-9.60;84.01;102453.63;5114368;28;20422;-64
2022/12/18 08:01:13;;;;;;;62.30;26.70;;;;;;;-9.57;84.00;102449.47;5113790;28;20457;-64
2022/12/18 08:03:40;;;;;;;69.57;29.67;;;;;;;-9.55;84.19;102449.50;5114331;28;20436;-64
2022/12/18 08:06:09;;;;;;;56.50;26.23;;;;;;;-9.45;83.38;102447.34;5114212;28;20849;-64
2022/12/18 08:08:36;;;;;;;76.73;28.30;;;;;;;-9.37;83.93;102452.81;5113635;28;20938;-63
2022/12/18 08:11:03;;;;;;;58.53;27.70;;;;;;;-9.31;84.04;102446.97;5113745;28;20429;-63
2022/12/18 08:13:29;;;;;;;66.27;27.70;;;;;;;-9.23;83.97;102455.94;5114225;28;20425;-63
2022/12/18 08:15:56;;;;;;;56.33;26.53;;;;;;;-9.18;83.93;102440.53;5113550;28;20445;-64
2022/12/18 08:18:23;;;;;;;63.33;29.47;;;;;;;-9.12;84.38;102438.16;5113877;28;20421;-64
2022/12/18 08:20:49;;;;;;;61.07;27.77;;;;;;;-9.08;83.87;102433.13;5113659;28;20800;-64
2022/12/18 08:23:15;;;;;;;52.37;27.37;;;;;;;-9.00;84.45;102433.44;5114011;28;20426;-64
2022/12/18 08:25:42;;;;;;;57.60;26.43;;;;;;;-8.93;85.11;102417.25;5113463;28;20446;-64
2022/12/18 08:28:08;;;;;;;55.90;28.53;;;;;;;-8.83;84.66;102418.47;5113550;28;20417;-64
2022/12/18 08:30:35;;;;;;;51.17;26.80;;;;;;;-8.69;85.80;102408.53;5113954;28;20461;-64
2022/12/18 08:33:03;;;;;;;55.60;24.80;;;;;;;-8.48;86.71;102400.59;5113485;28;20463;-64
2022/12/18 08:35:29;;;;;;;46.37;22.80;;;;;;;-8.26;87.29;102390.06;5113359;28;20502;-64
2022/12/18 08:38:03;;;;;;;48.83;23.60;;;;;;;-8.05;86.85;102388.94;5113468;28;20405;-64
2022/12/18 08:40:29;;;;;;;33.60;19.80;;;;;;;-7.75;88.64;102394.22;5113390;28;20422;-64
2022/12/18 08:45:40;;;;;;;43.27;21.57;;;;;;;-7.26;87.89;102385.25;5117370;28;20448;-64
2022/12/18 08:48:07;;;;;;;37.93;19.60;;;;;;;-7.03;87.44;102378.06;5117247;28;20433;-64
2022/12/18 08:50:33;;;;;;;48.60;22.93;;;;;;;-6.87;88.29;102375.03;5117224;28;20527;-64
2022/12/18 08:53:00;;;;;;;38.97;20.57;;;;;;;-6.66;86.78;102379.91;5117486;28;20788;-64
2022/12/18 08:55:26;;;;;;;51.23;23.40;;;;;;;-6.50;87.76;102382.91;5117155;28;20441;-64
2022/12/18 08:57:52;;;;;;;49.20;23.97;;;;;;;-6.36;88.29;102380.66;5117412;28;20783;-64
2022/12/18 09:00:19;;;;;;;47.23;23.90;;;;;;;-6.19;86.69;102378.47;5117286;28;20429;-64
2022/12/18 09:02:46;;;;;;;39.70;21.67;;;;;;;-6.01;87.20;102369.34;5117634;28;20445;-64
2022/12/18 09:05:12;;;;;;;41.53;23.20;;;;;;;-5.89;87.23;102366.09;5117038;28;20467;-64
2022/12/18 09:07:39;;;;;;;49.83;23.83;;;;;;;-5.73;86.44;102380.34;5117790;28;20764;-64
2022/12/18 09:10:06;;;;;;;33.93;21.70;;;;;;;-5.61;86.80;102366.69;5117099;28;20473;-64
2022/12/18 09:12:32;;;;;;;48.33;24.60;;;;;;;-5.52;86.00;102364.28;5117136;28;20958;-64
2022/12/18 09:14:58;;;;;;;38.37;21.47;;;;;;;-5.40;85.84;102361.91;5116741;28;20445;-64
2022/12/18 09:17:25;;;;;;;43.87;23.57;;;;;;;-5.21;86.10;102357.94;5117310;28;20745;-64
2022/12/18 09:19:51;;;;;;;40.57;22.50;;;;;;;-5.09;85.03;102349.47;5116996;28;20425;-64
2022/12/18 09:22:17;;;;;;;50.20;23.93;;;;;;;-5.00;84.46;102351.38;5116521;28;20452;-64
2022/12/18 09:24:44;;;;;;;40.63;23.63;;;;;;;-4.96;84.86;102354.06;5116583;28;20437;-64
2022/12/18 09:27:10;;;;;;;47.37;23.83;;;;;;;-4.87;84.54;102363.81;5117185;28;20425;-64
2022/12/18 09:29:36;;;;;;;47.30;25.13;;;;;;;-4.77;85.38;102360.50;5116474;28;20458;-64
2022/12/18 09:32:03;;;;;;;42.80;25.30;;;;;;;-4.74;84.30;102354.44;5116547;28;20421;-64
2022/12/18 09:34:29;;;;;;;53.47;28.00;;;;;;;-4.63;83.74;102352.03;5116378;28;20442;-64
2022/12/18 09:36:56;;;;;;;54.83;28.83;;;;;;;-4.55;83.78;102348.69;5116444;28;20486;-64
2022/12/18 09:39:23;;;;;;;47.93;25.67;;;;;;;-4.44;83.44;102355.84;5116707;28;20604;-64
2022/12/18 09:41:57;;;;;;;49.10;25.47;;;;;;;-4.34;83.86;102360.34;5116986;28;20412;-64
2022/12/18 09:44:30;;;;;;;41.37;23.67;;;;;;;-4.27;83.62;102356.97;5116617;28;20815;-64
2022/12/18 09:47:12;;;;;;;48.33;24.80;;;;;;;-4.20;83.04;102358.84;5116493;28;20451;-65
2022/12/18 09:49:47;;;;;;;46.17;23.90;;;;;;;-4.07;82.77;102363.41;5116425;28;20441;-65
2022/12/18 09:52:21;;;;;;;53.37;25.40;;;;;;;-3.99;82.74;102358.28;5116229;28;20416;-64
2022/12/18 09:55:01;;;;;;;50.43;25.30;;;;;;;-3.90;83.14;102366.28;5116500;28;20548;-64
2022/12/18 09:57:33;;;;;;;53.67;25.40;;;;;;;-3.78;83.24;102370.81;5116292;28;20415;-64
2022/12/18 10:00:09;;;;;;;38.30;23.33;;;;;;;-3.75;83.41;102370.84;5116362;28;20403;-64
2022/12/18 10:02:40;;;;;;;41.03;23.27;;;;;;;-3.75;81.83;102365.59;5116295;28;20435;-64
2022/12/18 10:05:12;;;;;;;46.73;23.30;;;;;;;-3.66;81.35;102351.78;5116014;28;20499;-65
2022/12/18 10:08:02;;;;;;;53.63;23.87;;;;;;;-3.54;81.50;102340.56;5116430;28;20406;-65
2022/12/18 10:10:46;;;;;;;44.27;22.77;;;;;;;-3.47;81.35;102327.56;5115990;28;20445;-65
2022/12/18 10:13:16;;;;;;;41.97;24.57;;;;;;;-3.39;81.31;102317.19;5116015;28;20417;-65
2022/12/18 10:16:01;;;;;;;49.17;25.07;;;;;;;-3.28;80.64;102305.09;5115911;28;20445;-65
2022/12/18 10:19:02;;;;;;;53.63;23.77;;;;;;;-3.12;81.73;102305.25;5115947;28;20880;-65
2022/12/18 10:21:34;;;;;;;41.03;22.13;;;;;;;-3.07;81.38;102308.78;5115465;28;20448;-65
2022/12/18 10:24:26;;;;;;;41.90;24.37;;;;;;;-3.00;79.96;102313.22;5115814;28;20425;-65
2022/12/18 10:26:59;;;;;;;43.60;23.63;;;;;;;-2.95;80.41;102306.28;5115780;28;20417;-65
2022/12/18 10:29:26;;;;;;;43.40;24.27;;;;;;;-2.91;78.12;102304.56;5115622;28;20414;-65
2022/12/18 10:31:52;;;;;;;42.53;22.63;;;;;;;-2.84;78.24;102307.25;5115635;28;20499;-65
2022/12/18 10:34:18;;;;;;;40.40;23.13;;;;;;;-2.75;77.71;102296.00;5115288;28;20429;-65
2022/12/18 10:36:47;;;;;;;44.80;23.07;;;;;;;-2.69;77.95;102288.16;5115752;28;20445;-65
2022/12/18 10:39:16;;;;;;;44.30;23.57;;;;;;;-2.65;77.97;102287.34;5115189;28;20185;-65
2022/12/18 10:41:43;;;;;;;36.30;21.60;;;;;;;-2.55;77.45;102280.41;5115411;28;20429;-65
2022/12/18 10:44:24;;;;;;;49.47;24.30;;;;;;;-2.49;77.55;102276.94;5115381;28;20287;-65
2022/12/18 10:46:55;;;;;;;44.03;23.10;;;;;;;-2.43;77.12;102275.25;5115648;28;20174;-65
2022/12/18 10:49:28;;;;;;;42.03;22.67;;;;;;;-2.30;76.38;102280.56;5115481;28;20406;-65
2022/12/18 10:52:18;;;;;;;47.33;23.07;;;;;;;-2.26;76.95;102269.25;5114944;28;20646;-65
2022/12/18 10:55:03;;;;;;;50.27;23.20;;;;;;;-2.18;75.72;102272.78;5115303;28;20205;-65
2022/12/18 10:57:33;;;;;;;40.73;22.30;;;;;;;-2.11;75.19;102271.06;5115168;28;20177;-65
2022/12/18 11:00:21;;;;;;;43.77;23.23;;;;;;;-2.07;75.71;102257.97;5114794;28;20182;-65
2022/12/18 11:02:47;;;;;;;41.20;21.47;;;;;;;-1.91;75.39;102258.06;5115016;28;20173;-65
2022/12/18 11:05:30;;;;;;;45.87;22.53;;;;;;;-1.86;75.67;102248.47;5114648;28;20214;-65
2022/12/18 11:07:58;;;;;;;34.80;21.73;;;;;;;-1.85;75.39;102250.19;5114539;28;20185;-65
2022/12/18 11:10:33;;;;;;;44.00;22.53;;;;;;;-1.87;75.70;102241.44;5114786;28;20209;-65
2022/12/18 11:13:30;;;;;;;44.07;23.00;;;;;;;-1.81;74.44;102234.47;5114838;28;20185;-65
2022/12/18 11:15:57;;;;;;;32.97;20.87;;;;;;;-1.77;75.01;102240.63;5097784;28;20213;-65
2022/12/18 11:18:31;;;;;;;36.10;21.83;;;;;;;-1.76;74.16;102242.38;5114421;28;20185;-65
2022/12/18 11:21:06;;;;;;;35.83;20.77;;;;;;;-1.64;73.32;102238.91;5114703;28;20188;-65
2022/12/18 11:23:34;;;;;;;41.33;22.43;;;;;;;-1.65;73.32;102230.16;5114964;28;20187;-65
2022/12/18 11:26:05;;;;;;;31.83;21.00;;;;;;;-1.61;73.01;102231.03;5114250;28;20282;-65
2022/12/18 11:28:38;;;;;;;36.37;22.73;;;;;;;-1.57;72.98;102223.16;5114839;28;20185;-65